sensor_id;sensor_type;location;lat;lon;timestamp;pressure;altitude;pressure_sealevel;temperature;humidity
46111;BME280;31849;55.992;37.252;2024-01-06T00:00:28;98632.81;;;-17.57;54.08
46111;BME280;31849;55.992;37.252;2024-01-06T00:05:33;98619.91;;;-17.53;53.73
46111;BME280;31849;55.992;37.252;2024-01-06T00:10:37;98625.78;;;-17.53;53.72
46111;BME280;31849;55.992;37.252;2024-01-06T00:15:41;98629.28;;;-17.59;54.37
46111;BME280;31849;55.992;37.252;2024-01-06T00:20:46;98615.09;;;-17.52;54.82
46111;BME280;31849;55.992;37.252;2024-01-06T00:25:50;98611.00;;;-17.42;54.30
46111;BME280;31849;55.992;37.252;2024-01-06T00:30:53;98611.00;;;-17.42;54.27
46111;BME280;31849;55.992;37.252;2024-01-06T00:35:58;98616.75;;;-17.78;54.86
46111;BME280;31849;55.992;37.252;2024-01-06T00:41:02;98621.00;;;-17.68;55.00
46111;BME280;31849;55.992;37.252;2024-01-06T00:46:06;98610.59;;;-17.56;54.95
46111;BME280;31849;55.992;37.252;2024-01-06T00:51:11;98611.47;;;-17.55;54.30
46111;BME280;31849;55.992;37.252;2024-01-06T00:56:15;98619.66;;;-17.65;54.53
46111;BME280;31849;55.992;37.252;2024-01-06T01:01:18;98623.03;;;-17.56;54.59
46111;BME280;31849;55.992;37.252;2024-01-06T01:06:24;98625.47;;;-17.47;54.39
46111;BME280;31849;55.992;37.252;2024-01-06T01:11:28;98625.16;;;-17.50;54.49
46111;BME280;31849;55.992;37.252;2024-01-06T01:16:31;98625.47;;;-17.47;54.80
46111;BME280;31849;55.992;37.252;2024-01-06T01:21:36;98623.41;;;-17.33;54.96
46111;BME280;31849;55.992;37.252;2024-01-06T01:26:40;98621.31;;;-17.20;54.54
46111;BME280;31849;55.992;37.252;2024-01-06T01:31:44;98614.78;;;-17.01;54.78
46111;BME280;31849;55.992;37.252;2024-01-06T01:36:49;98612.06;;;-17.12;55.34
46111;BME280;31849;55.992;37.252;2024-01-06T01:41:52;98610.03;;;-17.25;55.67
46111;BME280;31849;55.992;37.252;2024-01-06T01:46:56;98595.47;;;-17.40;55.37
46111;BME280;31849;55.992;37.252;2024-01-06T01:52:01;98607.16;;;-17.30;55.61
46111;BME280;31849;55.992;37.252;2024-01-06T01:57:05;98598.84;;;-17.39;55.92
46111;BME280;31849;55.992;37.252;2024-01-06T02:02:09;98613.91;;;-17.38;55.58
46111;BME280;31849;55.992;37.252;2024-01-06T02:07:16;98625.16;;;-17.50;55.96
46111;BME280;31849;55.992;37.252;2024-01-06T02:12:20;98626.78;;;-17.42;55.80
46111;BME280;31849;55.992;37.252;2024-01-06T02:17:24;98623.69;;;-17.39;55.45
46111;BME280;31849;55.992;37.252;2024-01-06T02:22:30;98624.09;;;-17.26;55.78
46111;BME280;31849;55.992;37.252;2024-01-06T02:27:33;98629.34;;;-17.23;55.42
46111;BME280;31849;55.992;37.252;2024-01-06T02:32:37;98620.69;;;-17.18;55.61
46111;BME280;31849;55.992;37.252;2024-01-06T02:37:42;98618.38;;;-17.25;56.11
46111;BME280;31849;55.992;37.252;2024-01-06T02:42:46;98618.75;;;-17.11;56.17
46111;BME280;31849;55.992;37.252;2024-01-06T02:47:49;98618.34;;;-17.16;56.29
46111;BME280;31849;55.992;37.252;2024-01-06T02:52:54;98620.47;;;-17.02;56.07
46111;BME280;31849;55.992;37.252;2024-01-06T02:57:58;98622.81;;;-17.03;56.42
46111;BME280;31849;55.992;37.252;2024-01-06T03:03:02;98613.97;;;-17.19;56.24
46111;BME280;31849;55.992;37.252;2024-01-06T03:08:07;98596.59;;;-17.19;56.66
46111;BME280;31849;55.992;37.252;2024-01-06T03:13:11;98603.94;;;-17.29;56.43
46111;BME280;31849;55.992;37.252;2024-01-06T03:18:15;98605.81;;;-17.26;57.39
46111;BME280;31849;55.992;37.252;2024-01-06T03:23:20;98597.19;;;-17.30;57.30
46111;BME280;31849;55.992;37.252;2024-01-06T03:28:24;98613.41;;;-17.25;56.80
46111;BME280;31849;55.992;37.252;2024-01-06T03:33:28;98606.69;;;-17.26;57.24
46111;BME280;31849;55.992;37.252;2024-01-06T03:38:33;98606.69;;;-17.26;56.70
46111;BME280;31849;55.992;37.252;2024-01-06T03:43:37;98622.03;;;-17.21;57.03
46111;BME280;31849;55.992;37.252;2024-01-06T03:48:41;98612.44;;;-17.44;57.51
46111;BME280;31849;55.992;37.252;2024-01-06T03:53:46;98603.31;;;-17.26;56.80
46111;BME280;31849;55.992;37.252;2024-01-06T03:58:50;98614.75;;;-17.28;56.63
46111;BME280;31849;55.992;37.252;2024-01-06T04:03:54;98612.81;;;-17.59;57.57
46111;BME280;31849;55.992;37.252;2024-01-06T04:08:59;98614.47;;;-17.40;57.18
46111;BME280;31849;55.992;37.252;2024-01-06T04:14:04;98617.25;;;-17.37;56.90
46111;BME280;31849;55.992;37.252;2024-01-06T04:19:07;98610.84;;;-17.44;56.64
46111;BME280;31849;55.992;37.252;2024-01-06T04:24:15;98612.72;;;-17.41;57.10
46111;BME280;31849;55.992;37.252;2024-01-06T04:29:19;98621.47;;;-17.27;56.47
46111;BME280;31849;55.992;37.252;2024-01-06T04:34:22;98629.94;;;-17.25;57.36
46111;BME280;31849;55.992;37.252;2024-01-06T04:39:27;98628.38;;;-17.33;57.26
46111;BME280;31849;55.992;37.252;2024-01-06T04:44:31;98628.16;;;-17.26;56.81
46111;BME280;31849;55.992;37.252;2024-01-06T04:49:34;98634.56;;;-17.65;58.17
46111;BME280;31849;55.992;37.252;2024-01-06T04:54:40;98637.78;;;-17.66;57.53
46111;BME280;31849;55.992;37.252;2024-01-06T04:59:43;98641.13;;;-17.65;57.47
46111;BME280;31849;55.992;37.252;2024-01-06T05:04:47;98641.44;;;-17.62;57.26
46111;BME280;31849;55.992;37.252;2024-01-06T05:09:52;98636.75;;;-17.77;57.80
46111;BME280;31849;55.992;37.252;2024-01-06T05:14:56;98649.78;;;-17.71;57.65
46111;BME280;31849;55.992;37.252;2024-01-06T05:19:59;98651.44;;;-17.97;58.45
46111;BME280;31849;55.992;37.252;2024-01-06T05:25:05;98657.38;;;-17.86;57.37
46111;BME280;31849;55.992;37.252;2024-01-06T05:30:10;98646.28;;;-17.81;58.00
46111;BME280;31849;55.992;37.252;2024-01-06T05:35:15;98648.22;;;-18.05;58.21
46111;BME280;31849;55.992;37.252;2024-01-06T05:40:20;98654.38;;;-18.01;57.93
46111;BME280;31849;55.992;37.252;2024-01-06T05:45:24;98648.50;;;-17.93;57.51
46111;BME280;31849;55.992;37.252;2024-01-06T05:50:32;98648.22;;;-17.96;58.07
46111;BME280;31849;55.992;37.252;2024-01-06T05:55:38;98655.50;;;-18.07;57.49
46111;BME280;31849;55.992;37.252;2024-01-06T06:00:41;98650.69;;;-18.14;58.37
46111;BME280;31849;55.992;37.252;2024-01-06T06:05:45;98662.22;;;-18.23;58.33
46111;BME280;31849;55.992;37.252;2024-01-06T06:10:51;98669.50;;;-18.33;58.47
46111;BME280;31849;55.992;37.252;2024-01-06T06:16:04;98667.75;;;-18.26;58.61
46111;BME280;31849;55.992;37.252;2024-01-06T06:21:08;98676.69;;;-18.01;57.54
46111;BME280;31849;55.992;37.252;2024-01-06T06:26:13;98682.94;;;-17.79;57.17
46111;BME280;31849;55.992;37.252;2024-01-06T06:31:17;98688.91;;;-17.59;57.61
46111;BME280;31849;55.992;37.252;2024-01-06T06:36:21;98688.59;;;-17.54;56.89
46111;BME280;31849;55.992;37.252;2024-01-06T06:41:26;98686.41;;;-17.50;57.42
46111;BME280;31849;55.992;37.252;2024-01-06T06:46:29;98695.91;;;-17.38;57.74
46111;BME280;31849;55.992;37.252;2024-01-06T06:51:34;98699.41;;;-17.44;57.03
46111;BME280;31849;55.992;37.252;2024-01-06T06:56:39;98703.78;;;-17.50;57.41
46111;BME280;31849;55.992;37.252;2024-01-06T07:01:42;98709.88;;;-17.29;56.96
46111;BME280;31849;55.992;37.252;2024-01-06T07:06:46;98708.16;;;-17.22;56.70
46111;BME280;31849;55.992;37.252;2024-01-06T07:11:52;98710.94;;;-17.36;57.20
46111;BME280;31849;55.992;37.252;2024-01-06T07:16:55;98716.06;;;-17.35;57.16
46111;BME280;31849;55.992;37.252;2024-01-06T07:22:00;98705.31;;;-17.16;56.99
46111;BME280;31849;55.992;37.252;2024-01-06T07:27:09;98701.78;;;-16.92;56.89
46111;BME280;31849;55.992;37.252;2024-01-06T07:32:13;98702.66;;;-17.00;56.41
46111;BME280;31849;55.992;37.252;2024-01-06T07:37:17;98707.88;;;-16.88;56.68
46111;BME280;31849;55.992;37.252;2024-01-06T07:42:22;98701.09;;;-16.81;56.02
46111;BME280;31849;55.992;37.252;2024-01-06T07:47:26;98712.34;;;-16.75;56.22
46111;BME280;31849;55.992;37.252;2024-01-06T07:52:30;98705.44;;;-16.69;55.96
46111;BME280;31849;55.992;37.252;2024-01-06T07:57:36;98703.50;;;-16.63;56.39
46111;BME280;31849;55.992;37.252;2024-01-06T08:02:39;98702.59;;;-16.55;55.86
46111;BME280;31849;55.992;37.252;2024-01-06T08:07:43;98694.38;;;-16.54;56.04
46111;BME280;31849;55.992;37.252;2024-01-06T08:12:48;98687.09;;;-16.33;55.97
46111;BME280;31849;55.992;37.252;2024-01-06T08:17:52;98690.59;;;-16.12;56.47
46111;BME280;31849;55.992;37.252;2024-01-06T08:22:56;98693.31;;;-16.00;55.42
46111;BME280;31849;55.992;37.252;2024-01-06T08:28:01;98679.91;;;-16.30;55.83
46111;BME280;31849;55.992;37.252;2024-01-06T08:33:05;98689.69;;;-16.04;55.72
46111;BME280;31849;55.992;37.252;2024-01-06T08:38:09;98677.28;;;-15.75;55.26
46111;BME280;31849;55.992;37.252;2024-01-06T08:43:14;98690.88;;;-15.90;55.72
46111;BME280;31849;55.992;37.252;2024-01-06T08:48:18;98693.94;;;-15.73;56.06
46111;BME280;31849;55.992;37.252;2024-01-06T08:53:22;98689.50;;;-15.78;56.11
46111;BME280;31849;55.992;37.252;2024-01-06T08:58:27;98690.31;;;-15.77;55.79
46111;BME280;31849;55.992;37.252;2024-01-06T09:03:31;98685.75;;;-15.72;55.96
46111;BME280;31849;55.992;37.252;2024-01-06T09:08:34;98676.03;;;-15.69;55.18
46111;BME280;31849;55.992;37.252;2024-01-06T09:13:40;98677.06;;;-15.67;55.84
46111;BME280;31849;55.992;37.252;2024-01-06T09:18:43;98671.47;;;-15.35;55.84
46111;BME280;31849;55.992;37.252;2024-01-06T09:23:47;98677.50;;;-15.23;54.56
46111;BME280;31849;55.992;37.252;2024-01-06T09:28:52;98662.63;;;-15.42;54.88
46111;BME280;31849;55.992;37.252;2024-01-06T09:33:59;98656.66;;;-15.34;55.39
46111;BME280;31849;55.992;37.252;2024-01-06T09:39:04;98652.28;;;-14.97;54.78
46111;BME280;31849;55.992;37.252;2024-01-06T09:44:09;98657.91;;;-14.79;55.09
46111;BME280;31849;55.992;37.252;2024-01-06T09:49:22;98667.50;;;-14.94;54.91
46111;BME280;31849;55.992;37.252;2024-01-06T09:54:30;98662.41;;;-14.85;55.88
46111;BME280;31849;55.992;37.252;2024-01-06T09:59:38;98649.22;;;-14.74;54.80
46111;BME280;31849;55.992;37.252;2024-01-06T10:04:44;98645.06;;;-14.42;54.91
46111;BME280;31849;55.992;37.252;2024-01-06T10:09:48;98645.56;;;-14.26;54.84
46111;BME280;31849;55.992;37.252;2024-01-06T10:14:53;98638.22;;;-14.35;54.39
46111;BME280;31849;55.992;37.252;2024-01-06T10:19:57;98628.59;;;-14.40;55.08
46111;BME280;31849;55.992;37.252;2024-01-06T10:25:01;98628.34;;;-14.43;54.83
46111;BME280;31849;55.992;37.252;2024-01-06T10:30:09;98625.72;;;-14.24;54.69
46111;BME280;31849;55.992;37.252;2024-01-06T10:35:13;98626.34;;;-14.37;54.52
46111;BME280;31849;55.992;37.252;2024-01-06T10:40:17;98621.97;;;-14.40;55.14
46111;BME280;31849;55.992;37.252;2024-01-06T10:45:23;98615.38;;;-14.49;55.60
46111;BME280;31849;55.992;37.252;2024-01-06T10:50:27;98621.94;;;-14.29;54.93
46111;BME280;31849;55.992;37.252;2024-01-06T10:55:32;98619.03;;;-13.93;54.49
46111;BME280;31849;55.992;37.252;2024-01-06T11:00:38;98621.75;;;-13.80;53.93
46111;BME280;31849;55.992;37.252;2024-01-06T11:05:42;98611.63;;;-13.71;53.85
46111;BME280;31849;55.992;37.252;2024-01-06T11:10:47;98610.97;;;-13.58;53.72
46111;BME280;31849;55.992;37.252;2024-01-06T11:15:53;98613.53;;;-13.46;54.18
46111;BME280;31849;55.992;37.252;2024-01-06T11:21:16;98620.13;;;-13.79;54.67
46111;BME280;31849;55.992;37.252;2024-01-06T11:26:21;98622.19;;;-14.06;55.05
46111;BME280;31849;55.992;37.252;2024-01-06T11:31:30;98621.69;;;-14.12;55.49
46111;BME280;31849;55.992;37.252;2024-01-06T11:36:34;98635.03;;;-14.01;54.43
46111;BME280;31849;55.992;37.252;2024-01-06T11:41:48;98636.16;;;-13.87;55.03
46111;BME280;31849;55.992;37.252;2024-01-06T11:46:56;98646.38;;;-13.74;54.38
46111;BME280;31849;55.992;37.252;2024-01-06T11:52:00;98633.88;;;-13.74;54.35
46111;BME280;31849;55.992;37.252;2024-01-06T11:57:04;98634.28;;;-13.90;54.18
46111;BME280;31849;55.992;37.252;2024-01-06T12:02:12;98642.81;;;-13.98;55.40
46111;BME280;31849;55.992;37.252;2024-01-06T12:07:16;98637.47;;;-14.13;54.83
46111;BME280;31849;55.992;37.252;2024-01-06T12:12:22;98641.06;;;-14.30;55.04
46111;BME280;31849;55.992;37.252;2024-01-06T12:17:30;98652.31;;;-14.45;54.87
46111;BME280;31849;55.992;37.252;2024-01-06T12:22:34;98650.56;;;-14.57;56.13
46111;BME280;31849;55.992;37.252;2024-01-06T12:27:42;98640.47;;;-14.69;55.90
46111;BME280;31849;55.992;37.252;2024-01-06T12:32:48;98647.06;;;-14.90;56.12
46111;BME280;31849;55.992;37.252;2024-01-06T12:37:52;98650.56;;;-14.77;56.09
46111;BME280;31849;55.992;37.252;2024-01-06T12:42:56;98655.03;;;-14.94;56.73
46111;BME280;31849;55.992;37.252;2024-01-06T12:48:01;98671.78;;;-14.82;55.72
46111;BME280;31849;55.992;37.252;2024-01-06T12:53:05;98665.53;;;-14.77;55.87
46111;BME280;31849;55.992;37.252;2024-01-06T12:58:09;98671.66;;;-14.74;56.30
46111;BME280;31849;55.992;37.252;2024-01-06T13:03:15;98675.47;;;-14.88;57.03
46111;BME280;31849;55.992;37.252;2024-01-06T13:08:19;98678.91;;;-14.77;56.27
46111;BME280;31849;55.992;37.252;2024-01-06T13:13:23;98676.91;;;-14.71;56.58
46111;BME280;31849;55.992;37.252;2024-01-06T13:18:28;98676.16;;;-14.70;56.39
46111;BME280;31849;55.992;37.252;2024-01-06T13:23:32;98678.50;;;-14.81;56.27
46111;BME280;31849;55.992;37.252;2024-01-06T13:28:36;98689.25;;;-14.82;56.80
46111;BME280;31849;55.992;37.252;2024-01-06T13:33:41;98692.94;;;-14.88;56.63
46111;BME280;31849;55.992;37.252;2024-01-06T13:38:45;98690.72;;;-14.84;56.44
46111;BME280;31849;55.992;37.252;2024-01-06T13:43:50;98706.44;;;-14.85;57.24
46111;BME280;31849;55.992;37.252;2024-01-06T13:48:55;98712.69;;;-14.80;56.64
46111;BME280;31849;55.992;37.252;2024-01-06T13:53:59;98707.69;;;-14.80;56.78
46111;BME280;31849;55.992;37.252;2024-01-06T13:59:03;98707.72;;;-15.10;57.82
46111;BME280;31849;55.992;37.252;2024-01-06T14:04:08;98717.69;;;-15.10;57.13
46111;BME280;31849;55.992;37.252;2024-01-06T14:09:12;98726.25;;;-14.97;56.55
46111;BME280;31849;55.992;37.252;2024-01-06T14:14:16;98720.88;;;-14.92;57.46
46111;BME280;31849;55.992;37.252;2024-01-06T14:19:21;98727.00;;;-14.88;57.24
46111;BME280;31849;55.992;37.252;2024-01-06T14:24:26;98726.41;;;-14.85;57.50
46111;BME280;31849;55.992;37.252;2024-01-06T14:29:29;98736.72;;;-14.91;56.90
46111;BME280;31849;55.992;37.252;2024-01-06T14:34:35;98740.81;;;-15.02;57.13
46111;BME280;31849;55.992;37.252;2024-01-06T14:39:38;98743.06;;;-14.95;56.68
46111;BME280;31849;55.992;37.252;2024-01-06T14:44:43;98741.81;;;-15.00;57.24
46111;BME280;31849;55.992;37.252;2024-01-06T14:49:48;98739.56;;;-14.97;56.99
46111;BME280;31849;55.992;37.252;2024-01-06T14:54:53;98736.97;;;-14.98;56.53
46111;BME280;31849;55.992;37.252;2024-01-06T14:59:56;98748.84;;;-15.15;57.87
46111;BME280;31849;55.992;37.252;2024-01-06T15:05:02;98761.00;;;-15.09;57.41
46111;BME280;31849;55.992;37.252;2024-01-06T15:10:07;98764.59;;;-15.06;56.99
46111;BME280;31849;55.992;37.252;2024-01-06T15:15:12;98765.66;;;-15.23;57.30
46111;BME280;31849;55.992;37.252;2024-01-06T15:20:18;98769.03;;;-15.22;57.53
46111;BME280;31849;55.992;37.252;2024-01-06T15:25:21;98772.25;;;-15.23;56.85
46111;BME280;31849;55.992;37.252;2024-01-06T15:30:25;98775.25;;;-15.27;57.51
46111;BME280;31849;55.992;37.252;2024-01-06T15:35:30;98750.00;;;-15.60;57.52
46111;BME280;31849;55.992;37.252;2024-01-06T15:40:34;98785.81;;;-15.49;57.45
46111;BME280;31849;55.992;37.252;2024-01-06T15:45:38;98791.84;;;-15.55;56.77
46111;BME280;31849;55.992;37.252;2024-01-06T15:50:44;98790.59;;;-15.80;57.02
46111;BME280;31849;55.992;37.252;2024-01-06T15:55:47;98811.22;;;-15.91;57.93
46111;BME280;31849;55.992;37.252;2024-01-06T16:00:51;98814.00;;;-15.97;57.32
46111;BME280;31849;55.992;37.252;2024-01-06T16:05:56;98825.06;;;-16.12;57.53
46111;BME280;31849;55.992;37.252;2024-01-06T16:11:00;98831.22;;;-16.08;57.89
46111;BME280;31849;55.992;37.252;2024-01-06T16:16:05;98828.03;;;-16.16;58.09
46111;BME280;31849;55.992;37.252;2024-01-06T16:21:10;98825.09;;;-16.21;57.34
46111;BME280;31849;55.992;37.252;2024-01-06T16:26:14;98846.81;;;-16.29;57.74
46111;BME280;31849;55.992;37.252;2024-01-06T16:31:18;98855.91;;;-16.38;57.36
46111;BME280;31849;55.992;37.252;2024-01-06T16:36:28;98847.47;;;-16.49;57.76
46111;BME280;31849;55.992;37.252;2024-01-06T16:41:32;98860.94;;;-16.55;58.47
46111;BME280;31849;55.992;37.252;2024-01-06T16:46:36;98868.00;;;-16.69;57.95
46111;BME280;31849;55.992;37.252;2024-01-06T16:51:41;98846.53;;;-16.86;58.01
46111;BME280;31849;55.992;37.252;2024-01-06T16:56:45;98852.84;;;-16.89;57.78
46111;BME280;31849;55.992;37.252;2024-01-06T17:01:49;98865.00;;;-17.01;57.40
46111;BME280;31849;55.992;37.252;2024-01-06T17:06:54;98862.81;;;-17.07;57.70
46111;BME280;31849;55.992;37.252;2024-01-06T17:11:59;98882.25;;;-17.03;57.99
46111;BME280;31849;55.992;37.252;2024-01-06T17:17:03;98881.66;;;-17.00;57.67
46111;BME280;31849;55.992;37.252;2024-01-06T17:22:09;98886.34;;;-17.03;58.33
46111;BME280;31849;55.992;37.252;2024-01-06T17:27:13;98893.09;;;-17.11;58.40
46111;BME280;31849;55.992;37.252;2024-01-06T17:32:18;98896.44;;;-17.19;58.36
46111;BME280;31849;55.992;37.252;2024-01-06T17:37:24;98895.00;;;-17.17;58.65
46111;BME280;31849;55.992;37.252;2024-01-06T17:42:28;98905.34;;;-17.30;58.88
46111;BME280;31849;55.992;37.252;2024-01-06T17:47:32;98909.72;;;-17.36;58.41
46111;BME280;31849;55.992;37.252;2024-01-06T17:52:39;98909.41;;;-17.48;58.25
46111;BME280;31849;55.992;37.252;2024-01-06T17:57:43;98907.34;;;-17.61;58.87
46111;BME280;31849;55.992;37.252;2024-01-06T18:02:47;98906.75;;;-17.67;58.78
46111;BME280;31849;55.992;37.252;2024-01-06T18:07:53;98900.84;;;-17.85;58.57
46111;BME280;31849;55.992;37.252;2024-01-06T18:12:56;98909.47;;;-17.99;59.28
46111;BME280;31849;55.992;37.252;2024-01-06T18:18:01;98915.41;;;-18.06;58.58
46111;BME280;31849;55.992;37.252;2024-01-06T18:23:06;98932.63;;;-18.07;59.14
46111;BME280;31849;55.992;37.252;2024-01-06T18:28:10;98939.31;;;-18.15;59.19
46111;BME280;31849;55.992;37.252;2024-01-06T18:33:14;98938.22;;;-18.26;58.90
46111;BME280;31849;55.992;37.252;2024-01-06T18:38:19;98937.03;;;-18.29;59.00
46111;BME280;31849;55.992;37.252;2024-01-06T18:43:23;98951.16;;;-18.37;59.53
46111;BME280;31849;55.992;37.252;2024-01-06T18:48:26;98950.41;;;-18.61;59.68
46111;BME280;31849;55.992;37.252;2024-01-06T18:53:32;98957.16;;;-18.75;59.83
46111;BME280;31849;55.992;37.252;2024-01-06T18:58:40;98959.91;;;-18.97;60.31
46111;BME280;31849;55.992;37.252;2024-01-06T19:03:44;98961.75;;;-19.19;59.94
46111;BME280;31849;55.992;37.252;2024-01-06T19:08:49;98961.28;;;-19.24;60.28
46111;BME280;31849;55.992;37.252;2024-01-06T19:13:53;98952.66;;;-19.27;60.17
46111;BME280;31849;55.992;37.252;2024-01-06T19:18:57;98959.22;;;-18.96;59.20
46111;BME280;31849;55.992;37.252;2024-01-06T19:24:03;98959.56;;;-18.84;58.94
46111;BME280;31849;55.992;37.252;2024-01-06T19:29:07;98960.66;;;-18.73;59.53
46111;BME280;31849;55.992;37.252;2024-01-06T19:34:11;98952.81;;;-18.69;59.56
46111;BME280;31849;55.992;37.252;2024-01-06T19:39:15;98967.09;;;-18.51;59.30
46111;BME280;31849;55.992;37.252;2024-01-06T19:44:19;98966.63;;;-18.55;58.50
46111;BME280;31849;55.992;37.252;2024-01-06T19:49:23;98963.59;;;-18.53;59.34
46111;BME280;31849;55.992;37.252;2024-01-06T19:54:28;98986.41;;;-18.24;59.07
46111;BME280;31849;55.992;37.252;2024-01-06T19:59:34;98987.13;;;-18.00;58.46
46111;BME280;31849;55.992;37.252;2024-01-06T20:04:38;98983.50;;;-17.86;58.02
46111;BME280;31849;55.992;37.252;2024-01-06T20:09:45;98992.91;;;-17.75;58.23
46111;BME280;31849;55.992;37.252;2024-01-06T20:14:49;98993.97;;;-17.64;58.71
46111;BME280;31849;55.992;37.252;2024-01-06T20:19:53;99002.63;;;-17.52;58.78
46111;BME280;31849;55.992;37.252;2024-01-06T20:24:59;99001.31;;;-17.57;58.45
46111;BME280;31849;55.992;37.252;2024-01-06T20:30:06;99018.72;;;-17.48;58.16
46111;BME280;31849;55.992;37.252;2024-01-06T20:35:10;99021.09;;;-17.41;58.08
46111;BME280;31849;55.992;37.252;2024-01-06T20:40:15;99026.06;;;-17.41;58.54
46111;BME280;31849;55.992;37.252;2024-01-06T20:45:20;99041.84;;;-17.40;58.06
46111;BME280;31849;55.992;37.252;2024-01-06T20:50:24;99044.47;;;-17.39;57.92
46111;BME280;31849;55.992;37.252;2024-01-06T20:55:29;99046.34;;;-17.45;58.65
46111;BME280;31849;55.992;37.252;2024-01-06T21:00:32;99056.44;;;-17.43;57.82
46111;BME280;31849;55.992;37.252;2024-01-06T21:05:36;99044.00;;;-17.52;58.33
46111;BME280;31849;55.992;37.252;2024-01-06T21:10:44;99059.34;;;-17.47;57.82
46111;BME280;31849;55.992;37.252;2024-01-06T21:15:48;99080.50;;;-17.60;58.19
46111;BME280;31849;55.992;37.252;2024-01-06T21:20:52;99089.34;;;-17.71;58.23
46111;BME280;31849;55.992;37.252;2024-01-06T21:25:57;99083.25;;;-17.90;58.66
46111;BME280;31849;55.992;37.252;2024-01-06T21:31:03;99098.53;;;-18.19;58.58
46111;BME280;31849;55.992;37.252;2024-01-06T21:36:07;99116.72;;;-18.43;58.70
46111;BME280;31849;55.992;37.252;2024-01-06T21:41:12;99075.69;;;-18.80;58.57
46111;BME280;31849;55.992;37.252;2024-01-06T21:46:16;99120.69;;;-18.84;58.47
46111;BME280;31849;55.992;37.252;2024-01-06T21:51:20;99126.94;;;-19.04;58.95
46111;BME280;31849;55.992;37.252;2024-01-06T21:56:26;99133.50;;;-19.27;59.35
46111;BME280;31849;55.992;37.252;2024-01-06T22:01:29;99123.09;;;-19.32;58.91
46111;BME280;31849;55.992;37.252;2024-01-06T22:06:33;99130.13;;;-19.51;59.55
46111;BME280;31849;55.992;37.252;2024-01-06T22:11:39;99147.50;;;-19.58;59.32
46111;BME280;31849;55.992;37.252;2024-01-06T22:16:43;99165.09;;;-19.71;59.01
46111;BME280;31849;55.992;37.252;2024-01-06T22:21:46;99166.47;;;-19.89;59.48
46111;BME280;31849;55.992;37.252;2024-01-06T22:26:53;99168.25;;;-19.95;59.56
46111;BME280;31849;55.992;37.252;2024-01-06T22:31:56;99168.13;;;-20.04;59.09
46111;BME280;31849;55.992;37.252;2024-01-06T22:37:00;99160.34;;;-20.07;58.77
46111;BME280;31849;55.992;37.252;2024-01-06T22:42:06;99184.94;;;-20.16;59.40
46111;BME280;31849;55.992;37.252;2024-01-06T22:47:10;99183.75;;;-20.27;59.67
46111;BME280;31849;55.992;37.252;2024-01-06T22:52:14;99195.97;;;-20.43;59.49
46111;BME280;31849;55.992;37.252;2024-01-06T22:57:19;99196.72;;;-20.51;59.69
46111;BME280;31849;55.992;37.252;2024-01-06T23:02:23;99168.03;;;-20.86;59.66
46111;BME280;31849;55.992;37.252;2024-01-06T23:07:27;99223.97;;;-20.65;59.34
46111;BME280;31849;55.992;37.252;2024-01-06T23:12:32;99231.91;;;-20.68;59.06
46111;BME280;31849;55.992;37.252;2024-01-06T23:17:37;99248.16;;;-20.77;59.55
46111;BME280;31849;55.992;37.252;2024-01-06T23:22:40;99254.13;;;-20.82;59.19
46111;BME280;31849;55.992;37.252;2024-01-06T23:27:46;99264.91;;;-20.89;58.86
46111;BME280;31849;55.992;37.252;2024-01-06T23:32:50;99268.25;;;-20.96;59.68
46111;BME280;31849;55.992;37.252;2024-01-06T23:37:53;99280.63;;;-21.03;59.22
46111;BME280;31849;55.992;37.252;2024-01-06T23:42:58;99298.91;;;-21.15;59.23
46111;BME280;31849;55.992;37.252;2024-01-06T23:48:04;99305.94;;;-21.26;58.80
46111;BME280;31849;55.992;37.252;2024-01-06T23:53:08;99320.22;;;-21.30;59.48
46111;BME280;31849;55.992;37.252;2024-01-06T23:58:14;99324.44;;;-21.36;58.74
